Startpagina
METAR-TAF:

METAR-TAF

Vliegvelden :

Amman, Jordanië

breedte: 31-59N, lengte: 035-59E, hoogte: 767 m

Actueel weer

Dit bericht is 56 minuten geleden gemaakt, om 13:00 UTC
Wind 2 kt uit het oosten
Temperatuur 18°C
Vochtigheid 22%
Druk 1016 hPa
Zicht: 5000 m
Heiigheid

METAR: OJAM 221300Z 08002KT 5000 HZ NSC 18/M04 Q1016 NOSIG

Tijdstip: 15:56 (13:56 UTC)

Verwachting

Dit bericht is 8 uur en het 56 minuten geleden gemaakt, om 05:00 UTC
Verwachting geldig van 22 om 06 UTC tot 23 om 12 UTC
Wind 8 kt uit het oostzuidoosten
Zicht: 6000 m
Kans 30% :
Tijdelijke
van 22 om 10 UTC tot 22 om 16 UTC
Zicht: 5000 m
Heiigheid

TAF: OJAM 220500Z 2206/2312 12008KT 6000 NSC PROB30 TEMPO 2210/2216 5000 HZ

Waarnemingen en weersverwachtingen van meer dan 4000 vliegvelden (METAR en TAF).

De beschikbare stations zijn de gele en rode punten op de kaart.

Ga met uw muis naar het station om de naam te zien.

Klik dan om waarnemingen en weersverwachtingen te zien.

kaart wijzigen: klik op de groene knoppen met een zwart kruis om in te zoomen, op de groene knop met een streepje om uit te zoomen of op de groene pijlen voor aangrenzende kaarten.


METAR-TAF: